sensor_id;sensor_type;location;lat;lon;timestamp;P1;durP1;ratioP1;P2;durP2;ratioP2
69030;SDS011;56083;48.774;8.942;2023-02-01T00:01:41;8.98;;;4.78;;
69030;SDS011;56083;48.774;8.942;2023-02-01T00:04:07;8.38;;;4.63;;
69030;SDS011;56083;48.774;8.942;2023-02-01T00:06:33;9.88;;;4.88;;
69030;SDS011;56083;48.774;8.942;2023-02-01T00:08:58;8.65;;;4.50;;
69030;SDS011;56083;48.774;8.942;2023-02-01T00:11:24;7.65;;;4.25;;
69030;SDS011;56083;48.774;8.942;2023-02-01T00:13:50;6.28;;;4.10;;
69030;SDS011;56083;48.774;8.942;2023-02-01T00:16:17;7.78;;;4.38;;
69030;SDS011;56083;48.774;8.942;2023-02-01T00:18:45;8.65;;;4.22;;
69030;SDS011;56083;48.774;8.942;2023-02-01T00:21:12;6.93;;;4.70;;
69030;SDS011;56083;48.774;8.942;2023-02-01T00:23:39;7.88;;;4.60;;
69030;SDS011;56083;48.774;8.942;2023-02-01T00:26:06;9.55;;;4.93;;
69030;SDS011;56083;48.774;8.942;2023-02-01T00:28:35;9.52;;;4.90;;
69030;SDS011;56083;48.774;8.942;2023-02-01T00:31:02;7.95;;;4.90;;
69030;SDS011;56083;48.774;8.942;2023-02-01T00:33:29;9.15;;;5.10;;
69030;SDS011;56083;48.774;8.942;2023-02-01T00:35:56;7.28;;;4.55;;
69030;SDS011;56083;48.774;8.942;2023-02-01T00:38:23;7.20;;;4.30;;
69030;SDS011;56083;48.774;8.942;2023-02-01T00:40:49;7.00;;;4.25;;
69030;SDS011;56083;48.774;8.942;2023-02-01T00:43:15;6.35;;;4.10;;
69030;SDS011;56083;48.774;8.942;2023-02-01T00:45:40;6.05;;;3.70;;
69030;SDS011;56083;48.774;8.942;2023-02-01T00:48:06;7.20;;;4.25;;
69030;SDS011;56083;48.774;8.942;2023-02-01T00:50:32;7.72;;;4.28;;
69030;SDS011;56083;48.774;8.942;2023-02-01T00:52:57;6.40;;;4.28;;
69030;SDS011;56083;48.774;8.942;2023-02-01T00:55:23;7.22;;;4.55;;
69030;SDS011;56083;48.774;8.942;2023-02-01T00:57:49;7.45;;;4.45;;
69030;SDS011;56083;48.774;8.942;2023-02-01T01:00:15;8.02;;;4.85;;
69030;SDS011;56083;48.774;8.942;2023-02-01T01:02:43;7.00;;;4.25;;
69030;SDS011;56083;48.774;8.942;2023-02-01T01:05:09;9.77;;;5.63;;
69030;SDS011;56083;48.774;8.942;2023-02-01T01:07:34;8.85;;;5.43;;
69030;SDS011;56083;48.774;8.942;2023-02-01T01:10:00;8.30;;;5.57;;
69030;SDS011;56083;48.774;8.942;2023-02-01T01:12:25;8.45;;;5.38;;
69030;SDS011;56083;48.774;8.942;2023-02-01T01:14:51;9.65;;;5.10;;
69030;SDS011;56083;48.774;8.942;2023-02-01T01:17:17;9.65;;;4.78;;
69030;SDS011;56083;48.774;8.942;2023-02-01T01:19:42;8.25;;;4.80;;
69030;SDS011;56083;48.774;8.942;2023-02-01T01:22:08;7.68;;;4.32;;
69030;SDS011;56083;48.774;8.942;2023-02-01T01:24:33;8.30;;;4.55;;
69030;SDS011;56083;48.774;8.942;2023-02-01T01:26:59;6.38;;;3.88;;
69030;SDS011;56083;48.774;8.942;2023-02-01T01:29:25;7.75;;;3.70;;
69030;SDS011;56083;48.774;8.942;2023-02-01T01:31:50;8.52;;;3.88;;
69030;SDS011;56083;48.774;8.942;2023-02-01T01:34:16;4.97;;;3.30;;
69030;SDS011;56083;48.774;8.942;2023-02-01T01:36:41;4.38;;;3.00;;
69030;SDS011;56083;48.774;8.942;2023-02-01T01:39:07;4.78;;;2.88;;
69030;SDS011;56083;48.774;8.942;2023-02-01T01:41:33;4.82;;;2.88;;
69030;SDS011;56083;48.774;8.942;2023-02-01T01:44:03;4.25;;;2.65;;
69030;SDS011;56083;48.774;8.942;2023-02-01T01:46:52;4.88;;;2.88;;
69030;SDS011;56083;48.774;8.942;2023-02-01T01:49:19;4.32;;;2.60;;
69030;SDS011;56083;48.774;8.942;2023-02-01T01:51:51;4.85;;;2.75;;
69030;SDS011;56083;48.774;8.942;2023-02-01T01:54:21;3.28;;;2.30;;
69030;SDS011;56083;48.774;8.942;2023-02-01T01:56:55;4.28;;;2.78;;
69030;SDS011;56083;48.774;8.942;2023-02-01T01:59:23;3.42;;;2.20;;
69030;SDS011;56083;48.774;8.942;2023-02-01T02:01:50;3.80;;;2.50;;
69030;SDS011;56083;48.774;8.942;2023-02-01T02:04:16;3.97;;;2.35;;
69030;SDS011;56083;48.774;8.942;2023-02-01T02:06:45;4.28;;;2.25;;
69030;SDS011;56083;48.774;8.942;2023-02-01T02:09:20;3.60;;;2.55;;
69030;SDS011;56083;48.774;8.942;2023-02-01T02:11:46;4.05;;;2.42;;
69030;SDS011;56083;48.774;8.942;2023-02-01T02:14:12;3.70;;;2.50;;
69030;SDS011;56083;48.774;8.942;2023-02-01T02:19:28;3.75;;;2.58;;
69030;SDS011;56083;48.774;8.942;2023-02-01T02:22:05;4.72;;;2.47;;
69030;SDS011;56083;48.774;8.942;2023-02-01T02:28:13;3.15;;;2.38;;
69030;SDS011;56083;48.774;8.942;2023-02-01T02:36:10;2.28;;;1.98;;
69030;SDS011;56083;48.774;8.942;2023-02-01T02:39:18;2.88;;;2.28;;
69030;SDS011;56083;48.774;8.942;2023-02-01T02:45:17;4.13;;;2.67;;
69030;SDS011;56083;48.774;8.942;2023-02-01T02:48:13;4.75;;;3.13;;
69030;SDS011;56083;48.774;8.942;2023-02-01T02:50:51;4.90;;;3.20;;
69030;SDS011;56083;48.774;8.942;2023-02-01T02:54:10;4.95;;;3.22;;
69030;SDS011;56083;48.774;8.942;2023-02-01T02:57:02;4.63;;;3.42;;
69030;SDS011;56083;48.774;8.942;2023-02-01T02:59:51;6.68;;;3.75;;
69030;SDS011;56083;48.774;8.942;2023-02-01T03:02:37;5.00;;;3.50;;
69030;SDS011;56083;48.774;8.942;2023-02-01T03:05:22;6.32;;;3.67;;
69030;SDS011;56083;48.774;8.942;2023-02-01T03:10:31;4.82;;;3.42;;
69030;SDS011;56083;48.774;8.942;2023-02-01T03:13:08;6.30;;;4.20;;
69030;SDS011;56083;48.774;8.942;2023-02-01T03:18:13;5.70;;;3.50;;
69030;SDS011;56083;48.774;8.942;2023-02-01T03:20:44;6.28;;;3.65;;
69030;SDS011;56083;48.774;8.942;2023-02-01T03:23:14;6.38;;;3.72;;
69030;SDS011;56083;48.774;8.942;2023-02-01T03:25:43;5.45;;;3.60;;
69030;SDS011;56083;48.774;8.942;2023-02-01T03:28:11;4.97;;;3.53;;
69030;SDS011;56083;48.774;8.942;2023-02-01T03:30:38;4.22;;;3.33;;
69030;SDS011;56083;48.774;8.942;2023-02-01T03:33:09;5.65;;;3.83;;
69030;SDS011;56083;48.774;8.942;2023-02-01T03:46:25;6.03;;;3.20;;
69030;SDS011;56083;48.774;8.942;2023-02-01T03:48:59;4.93;;;3.15;;
69030;SDS011;56083;48.774;8.942;2023-02-01T03:51:31;4.93;;;3.05;;
69030;SDS011;56083;48.774;8.942;2023-02-01T03:53:57;6.00;;;3.40;;
69030;SDS011;56083;48.774;8.942;2023-02-01T03:56:27;5.00;;;2.70;;
69030;SDS011;56083;48.774;8.942;2023-02-01T03:58:54;4.40;;;2.50;;
69030;SDS011;56083;48.774;8.942;2023-02-01T04:01:27;6.28;;;2.97;;
69030;SDS011;56083;48.774;8.942;2023-02-01T04:03:54;3.45;;;1.70;;
69030;SDS011;56083;48.774;8.942;2023-02-01T04:06:20;3.47;;;1.50;;
69030;SDS011;56083;48.774;8.942;2023-02-01T04:08:46;4.25;;;1.90;;
69030;SDS011;56083;48.774;8.942;2023-02-01T04:11:12;4.00;;;1.65;;
69030;SDS011;56083;48.774;8.942;2023-02-01T04:13:37;2.50;;;1.63;;
69030;SDS011;56083;48.774;8.942;2023-02-01T04:16:03;2.72;;;1.42;;
69030;SDS011;56083;48.774;8.942;2023-02-01T04:18:29;4.43;;;1.60;;
69030;SDS011;56083;48.774;8.942;2023-02-01T04:20:54;2.55;;;1.33;;
69030;SDS011;56083;48.774;8.942;2023-02-01T04:23:20;1.70;;;1.30;;
69030;SDS011;56083;48.774;8.942;2023-02-01T04:25:46;2.63;;;1.30;;
69030;SDS011;56083;48.774;8.942;2023-02-01T04:28:12;3.97;;;1.60;;
69030;SDS011;56083;48.774;8.942;2023-02-01T04:30:37;2.78;;;1.42;;
69030;SDS011;56083;48.774;8.942;2023-02-01T04:33:03;2.03;;;1.10;;
69030;SDS011;56083;48.774;8.942;2023-02-01T04:35:31;2.40;;;1.40;;
69030;SDS011;56083;48.774;8.942;2023-02-01T04:37:57;1.63;;;1.10;;
69030;SDS011;56083;48.774;8.942;2023-02-01T04:40:22;1.98;;;1.20;;
69030;SDS011;56083;48.774;8.942;2023-02-01T04:42:48;1.83;;;1.08;;
69030;SDS011;56083;48.774;8.942;2023-02-01T04:45:14;3.92;;;1.17;;
69030;SDS011;56083;48.774;8.942;2023-02-01T04:47:39;3.58;;;1.38;;
69030;SDS011;56083;48.774;8.942;2023-02-01T04:50:05;2.60;;;1.27;;
69030;SDS011;56083;48.774;8.942;2023-02-01T04:52:32;3.35;;;1.30;;
69030;SDS011;56083;48.774;8.942;2023-02-01T04:54:58;3.90;;;1.30;;
69030;SDS011;56083;48.774;8.942;2023-02-01T04:57:25;2.78;;;1.70;;
69030;SDS011;56083;48.774;8.942;2023-02-01T04:59:51;3.10;;;1.42;;
69030;SDS011;56083;48.774;8.942;2023-02-01T05:02:16;4.47;;;1.75;;
69030;SDS011;56083;48.774;8.942;2023-02-01T05:04:42;3.90;;;1.40;;
69030;SDS011;56083;48.774;8.942;2023-02-01T05:07:07;2.78;;;1.30;;
69030;SDS011;56083;48.774;8.942;2023-02-01T05:09:33;2.55;;;1.20;;
69030;SDS011;56083;48.774;8.942;2023-02-01T05:11:58;2.70;;;1.23;;
69030;SDS011;56083;48.774;8.942;2023-02-01T05:14:43;5.43;;;2.45;;
69030;SDS011;56083;48.774;8.942;2023-02-01T05:17:08;3.03;;;1.58;;
69030;SDS011;56083;48.774;8.942;2023-02-01T05:19:34;2.58;;;1.40;;
69030;SDS011;56083;48.774;8.942;2023-02-01T05:21:59;4.00;;;1.58;;
69030;SDS011;56083;48.774;8.942;2023-02-01T05:24:25;2.58;;;1.40;;
69030;SDS011;56083;48.774;8.942;2023-02-01T05:26:52;2.80;;;1.45;;
69030;SDS011;56083;48.774;8.942;2023-02-01T05:29:17;3.60;;;1.58;;
69030;SDS011;56083;48.774;8.942;2023-02-01T05:31:46;4.03;;;1.80;;
69030;SDS011;56083;48.774;8.942;2023-02-01T05:34:13;6.05;;;2.05;;
69030;SDS011;56083;48.774;8.942;2023-02-01T05:36:39;3.00;;;2.03;;
69030;SDS011;56083;48.774;8.942;2023-02-01T05:39:05;4.35;;;2.00;;
69030;SDS011;56083;48.774;8.942;2023-02-01T05:41:31;6.82;;;2.33;;
69030;SDS011;56083;48.774;8.942;2023-02-01T05:43:56;5.50;;;2.00;;
69030;SDS011;56083;48.774;8.942;2023-02-01T05:46:22;7.38;;;3.25;;
69030;SDS011;56083;48.774;8.942;2023-02-01T05:48:48;8.82;;;1.80;;
69030;SDS011;56083;48.774;8.942;2023-02-01T05:51:13;2.90;;;1.70;;
69030;SDS011;56083;48.774;8.942;2023-02-01T05:53:39;4.03;;;1.90;;
69030;SDS011;56083;48.774;8.942;2023-02-01T05:56:05;5.13;;;1.92;;
69030;SDS011;56083;48.774;8.942;2023-02-01T05:58:31;7.35;;;2.10;;
69030;SDS011;56083;48.774;8.942;2023-02-01T06:01:00;6.30;;;2.08;;
69030;SDS011;56083;48.774;8.942;2023-02-01T06:03:26;9.30;;;2.25;;
69030;SDS011;56083;48.774;8.942;2023-02-01T06:05:52;4.40;;;2.08;;
69030;SDS011;56083;48.774;8.942;2023-02-01T06:08:18;10.50;;;2.78;;
69030;SDS011;56083;48.774;8.942;2023-02-01T06:10:43;6.80;;;3.03;;
69030;SDS011;56083;48.774;8.942;2023-02-01T06:13:09;6.82;;;2.40;;
69030;SDS011;56083;48.774;8.942;2023-02-01T06:15:35;7.75;;;2.78;;
69030;SDS011;56083;48.774;8.942;2023-02-01T06:18:02;7.70;;;3.00;;
69030;SDS011;56083;48.774;8.942;2023-02-01T06:20:28;6.78;;;3.08;;
69030;SDS011;56083;48.774;8.942;2023-02-01T06:22:54;6.78;;;2.75;;
69030;SDS011;56083;48.774;8.942;2023-02-01T06:25:19;12.45;;;2.97;;
69030;SDS011;56083;48.774;8.942;2023-02-01T06:27:46;7.72;;;3.10;;
69030;SDS011;56083;48.774;8.942;2023-02-01T06:30:12;7.25;;;3.22;;
69030;SDS011;56083;48.774;8.942;2023-02-01T06:32:40;10.30;;;3.25;;
69030;SDS011;56083;48.774;8.942;2023-02-01T06:35:07;12.23;;;3.55;;
69030;SDS011;56083;48.774;8.942;2023-02-01T06:37:36;10.35;;;3.55;;
69030;SDS011;56083;48.774;8.942;2023-02-01T06:40:02;7.65;;;3.30;;
69030;SDS011;56083;48.774;8.942;2023-02-01T06:42:29;12.63;;;3.90;;
69030;SDS011;56083;48.774;8.942;2023-02-01T06:44:54;8.60;;;3.40;;
69030;SDS011;56083;48.774;8.942;2023-02-01T06:47:20;13.05;;;3.38;;
69030;SDS011;56083;48.774;8.942;2023-02-01T06:49:46;11.02;;;3.33;;
69030;SDS011;56083;48.774;8.942;2023-02-01T06:52:11;11.23;;;3.40;;
69030;SDS011;56083;48.774;8.942;2023-02-01T06:54:37;13.70;;;3.10;;
69030;SDS011;56083;48.774;8.942;2023-02-01T06:57:03;8.98;;;3.10;;
69030;SDS011;56083;48.774;8.942;2023-02-01T06:59:28;9.25;;;2.97;;
69030;SDS011;56083;48.774;8.942;2023-02-01T07:01:54;9.60;;;3.60;;
69030;SDS011;56083;48.774;8.942;2023-02-01T07:04:20;15.07;;;3.50;;
69030;SDS011;56083;48.774;8.942;2023-02-01T07:06:45;8.30;;;3.28;;
69030;SDS011;56083;48.774;8.942;2023-02-01T07:09:11;10.45;;;2.90;;
69030;SDS011;56083;48.774;8.942;2023-02-01T07:11:38;15.43;;;3.40;;
69030;SDS011;56083;48.774;8.942;2023-02-01T07:14:08;12.48;;;3.00;;
69030;SDS011;56083;48.774;8.942;2023-02-01T07:16:34;8.35;;;3.17;;
69030;SDS011;56083;48.774;8.942;2023-02-01T07:19:00;14.63;;;4.35;;
69030;SDS011;56083;48.774;8.942;2023-02-01T07:21:26;8.18;;;3.10;;
69030;SDS011;56083;48.774;8.942;2023-02-01T07:23:52;8.30;;;3.17;;
69030;SDS011;56083;48.774;8.942;2023-02-01T07:26:19;10.88;;;3.20;;
69030;SDS011;56083;48.774;8.942;2023-02-01T07:28:45;9.73;;;3.17;;
69030;SDS011;56083;48.774;8.942;2023-02-01T07:31:12;12.57;;;3.70;;
69030;SDS011;56083;48.774;8.942;2023-02-01T07:33:47;11.23;;;3.22;;
69030;SDS011;56083;48.774;8.942;2023-02-01T07:36:16;11.13;;;3.42;;
69030;SDS011;56083;48.774;8.942;2023-02-01T07:38:42;9.35;;;2.90;;
69030;SDS011;56083;48.774;8.942;2023-02-01T07:41:08;13.05;;;3.05;;
69030;SDS011;56083;48.774;8.942;2023-02-01T07:43:35;21.33;;;3.38;;
69030;SDS011;56083;48.774;8.942;2023-02-01T07:46:01;13.95;;;3.47;;
69030;SDS011;56083;48.774;8.942;2023-02-01T07:48:28;14.32;;;3.63;;
69030;SDS011;56083;48.774;8.942;2023-02-01T07:50:58;14.57;;;3.13;;
69030;SDS011;56083;48.774;8.942;2023-02-01T07:53:24;14.63;;;2.92;;
69030;SDS011;56083;48.774;8.942;2023-02-01T07:55:50;11.63;;;3.33;;
69030;SDS011;56083;48.774;8.942;2023-02-01T07:58:15;18.02;;;3.50;;
69030;SDS011;56083;48.774;8.942;2023-02-01T08:00:41;15.27;;;3.30;;
69030;SDS011;56083;48.774;8.942;2023-02-01T08:03:26;15.35;;;3.15;;
69030;SDS011;56083;48.774;8.942;2023-02-01T08:05:55;15.65;;;3.50;;
69030;SDS011;56083;48.774;8.942;2023-02-01T08:08:21;18.13;;;4.28;;
69030;SDS011;56083;48.774;8.942;2023-02-01T08:10:47;18.02;;;3.50;;
69030;SDS011;56083;48.774;8.942;2023-02-01T08:13:12;13.52;;;3.70;;
69030;SDS011;56083;48.774;8.942;2023-02-01T08:15:38;17.58;;;3.30;;
69030;SDS011;56083;48.774;8.942;2023-02-01T08:18:04;18.27;;;3.65;;
69030;SDS011;56083;48.774;8.942;2023-02-01T08:20:30;16.25;;;3.67;;
69030;SDS011;56083;48.774;8.942;2023-02-01T08:22:56;20.33;;;3.50;;
69030;SDS011;56083;48.774;8.942;2023-02-01T08:25:22;14.45;;;2.97;;
69030;SDS011;56083;48.774;8.942;2023-02-01T08:27:48;17.30;;;3.50;;
69030;SDS011;56083;48.774;8.942;2023-02-01T08:30:14;18.05;;;3.10;;
69030;SDS011;56083;48.774;8.942;2023-02-01T08:32:40;15.57;;;3.78;;
69030;SDS011;56083;48.774;8.942;2023-02-01T08:35:06;17.30;;;3.13;;
69030;SDS011;56083;48.774;8.942;2023-02-01T08:37:33;16.23;;;2.88;;
69030;SDS011;56083;48.774;8.942;2023-02-01T08:39:58;16.52;;;2.85;;
69030;SDS011;56083;48.774;8.942;2023-02-01T08:42:24;16.80;;;3.08;;
69030;SDS011;56083;48.774;8.942;2023-02-01T08:45:08;20.08;;;3.05;;
69030;SDS011;56083;48.774;8.942;2023-02-01T08:47:34;15.52;;;3.25;;
69030;SDS011;56083;48.774;8.942;2023-02-01T08:50:00;16.30;;;3.25;;
69030;SDS011;56083;48.774;8.942;2023-02-01T08:52:26;20.67;;;4.20;;
69030;SDS011;56083;48.774;8.942;2023-02-01T08:54:51;16.42;;;3.25;;
69030;SDS011;56083;48.774;8.942;2023-02-01T08:57:17;15.30;;;2.95;;
69030;SDS011;56083;48.774;8.942;2023-02-01T08:59:43;14.10;;;3.10;;
69030;SDS011;56083;48.774;8.942;2023-02-01T09:02:12;11.75;;;2.88;;
69030;SDS011;56083;48.774;8.942;2023-02-01T09:04:39;18.33;;;3.20;;
69030;SDS011;56083;48.774;8.942;2023-02-01T09:07:05;13.75;;;3.13;;
69030;SDS011;56083;48.774;8.942;2023-02-01T09:09:31;14.68;;;3.10;;
69030;SDS011;56083;48.774;8.942;2023-02-01T09:11:57;22.38;;;4.00;;
69030;SDS011;56083;48.774;8.942;2023-02-01T09:14:22;22.15;;;4.00;;
69030;SDS011;56083;48.774;8.942;2023-02-01T09:16:48;18.05;;;3.40;;
69030;SDS011;56083;48.774;8.942;2023-02-01T09:19:14;18.48;;;3.53;;
69030;SDS011;56083;48.774;8.942;2023-02-01T09:21:39;25.48;;;3.45;;
69030;SDS011;56083;48.774;8.942;2023-02-01T09:24:05;17.33;;;3.75;;
69030;SDS011;56083;48.774;8.942;2023-02-01T09:26:32;24.98;;;3.88;;
69030;SDS011;56083;48.774;8.942;2023-02-01T09:28:58;21.50;;;4.18;;
69030;SDS011;56083;48.774;8.942;2023-02-01T09:31:24;23.48;;;3.85;;
69030;SDS011;56083;48.774;8.942;2023-02-01T09:33:50;19.40;;;3.20;;
69030;SDS011;56083;48.774;8.942;2023-02-01T09:36:15;16.17;;;3.08;;
69030;SDS011;56083;48.774;8.942;2023-02-01T09:38:41;21.92;;;3.50;;
69030;SDS011;56083;48.774;8.942;2023-02-01T09:44:00;17.15;;;2.95;;
69030;SDS011;56083;48.774;8.942;2023-02-01T09:46:49;21.48;;;3.13;;
69030;SDS011;56083;48.774;8.942;2023-02-01T09:49:22;18.77;;;2.97;;
69030;SDS011;56083;48.774;8.942;2023-02-01T09:51:56;17.70;;;2.83;;
69030;SDS011;56083;48.774;8.942;2023-02-01T09:54:24;19.67;;;3.08;;
69030;SDS011;56083;48.774;8.942;2023-02-01T09:57:26;22.20;;;3.08;;
69030;SDS011;56083;48.774;8.942;2023-02-01T09:59:51;24.70;;;3.58;;
69030;SDS011;56083;48.774;8.942;2023-02-01T10:02:27;20.70;;;3.10;;
69030;SDS011;56083;48.774;8.942;2023-02-01T10:04:55;21.25;;;3.00;;
69030;SDS011;56083;48.774;8.942;2023-02-01T10:07:46;15.80;;;3.15;;
69030;SDS011;56083;48.774;8.942;2023-02-01T10:10:56;20.77;;;3.33;;
69030;SDS011;56083;48.774;8.942;2023-02-01T10:13:27;12.93;;;3.17;;
69030;SDS011;56083;48.774;8.942;2023-02-01T10:19:17;15.75;;;2.92;;
69030;SDS011;56083;48.774;8.942;2023-02-01T10:22:08;15.23;;;2.85;;
69030;SDS011;56083;48.774;8.942;2023-02-01T10:27:22;19.63;;;3.10;;
69030;SDS011;56083;48.774;8.942;2023-02-01T10:29:57;21.33;;;3.00;;
69030;SDS011;56083;48.774;8.942;2023-02-01T10:32:31;23.70;;;3.63;;
69030;SDS011;56083;48.774;8.942;2023-02-01T10:35:04;16.75;;;3.03;;
69030;SDS011;56083;48.774;8.942;2023-02-01T10:37:39;17.45;;;2.58;;
69030;SDS011;56083;48.774;8.942;2023-02-01T10:42:41;19.05;;;3.25;;
69030;SDS011;56083;48.774;8.942;2023-02-01T10:45:11;21.42;;;3.17;;
69030;SDS011;56083;48.774;8.942;2023-02-01T10:47:40;18.73;;;2.83;;
69030;SDS011;56083;48.774;8.942;2023-02-01T10:58:14;17.07;;;3.13;;
69030;SDS011;56083;48.774;8.942;2023-02-01T11:06:30;17.27;;;3.17;;
69030;SDS011;56083;48.774;8.942;2023-02-01T11:11:31;14.07;;;2.50;;
69030;SDS011;56083;48.774;8.942;2023-02-01T11:13:59;22.38;;;3.10;;
69030;SDS011;56083;48.774;8.942;2023-02-01T11:16:30;18.40;;;2.95;;
69030;SDS011;56083;48.774;8.942;2023-02-01T11:18:59;20.20;;;3.28;;
69030;SDS011;56083;48.774;8.942;2023-02-01T11:21:24;18.70;;;3.08;;
69030;SDS011;56083;48.774;8.942;2023-02-01T11:23:51;26.83;;;3.47;;
69030;SDS011;56083;48.774;8.942;2023-02-01T11:26:21;16.40;;;2.95;;
69030;SDS011;56083;48.774;8.942;2023-02-01T11:28:54;24.52;;;4.68;;
69030;SDS011;56083;48.774;8.942;2023-02-01T11:31:28;20.30;;;3.05;;
69030;SDS011;56083;48.774;8.942;2023-02-01T11:34:12;20.15;;;3.00;;
69030;SDS011;56083;48.774;8.942;2023-02-01T11:36:40;14.63;;;2.72;;
69030;SDS011;56083;48.774;8.942;2023-02-01T11:39:28;17.80;;;3.05;;
69030;SDS011;56083;48.774;8.942;2023-02-01T11:44:37;17.42;;;2.83;;
69030;SDS011;56083;48.774;8.942;2023-02-01T11:49:48;21.08;;;3.00;;
69030;SDS011;56083;48.774;8.942;2023-02-01T12:00:06;16.90;;;2.97;;
69030;SDS011;56083;48.774;8.942;2023-02-01T12:05:37;16.52;;;3.10;;
69030;SDS011;56083;48.774;8.942;2023-02-01T12:08:17;19.67;;;3.65;;
69030;SDS011;56083;48.774;8.942;2023-02-01T12:11:28;19.75;;;3.15;;
69030;SDS011;56083;48.774;8.942;2023-02-01T12:21:57;19.48;;;2.33;;
69030;SDS011;56083;48.774;8.942;2023-02-01T12:35:12;21.17;;;3.17;;
69030;SDS011;56083;48.774;8.942;2023-02-01T12:43:40;22.50;;;3.23;;
69030;SDS011;56083;48.774;8.942;2023-02-01T12:46:30;20.38;;;4.07;;
69030;SDS011;56083;48.774;8.942;2023-02-01T12:51:35;23.02;;;3.28;;
69030;SDS011;56083;48.774;8.942;2023-02-01T12:56:55;16.85;;;3.28;;
69030;SDS011;56083;48.774;8.942;2023-02-01T13:10:34;12.13;;;2.28;;
69030;SDS011;56083;48.774;8.942;2023-02-01T13:15:46;18.17;;;2.95;;
69030;SDS011;56083;48.774;8.942;2023-02-01T13:18:34;15.68;;;2.78;;
69030;SDS011;56083;48.774;8.942;2023-02-01T13:21:03;16.40;;;2.92;;
69030;SDS011;56083;48.774;8.942;2023-02-01T13:23:40;26.17;;;2.92;;
69030;SDS011;56083;48.774;8.942;2023-02-01T13:26:08;18.00;;;2.95;;
69030;SDS011;56083;48.774;8.942;2023-02-01T13:28:40;23.27;;;2.83;;
69030;SDS011;56083;48.774;8.942;2023-02-01T13:31:21;16.60;;;3.05;;
69030;SDS011;56083;48.774;8.942;2023-02-01T13:37:14;20.17;;;3.15;;
69030;SDS011;56083;48.774;8.942;2023-02-01T13:42:48;21.25;;;3.60;;
69030;SDS011;56083;48.774;8.942;2023-02-01T13:45:21;17.83;;;2.95;;
69030;SDS011;56083;48.774;8.942;2023-02-01T13:47:56;24.27;;;3.75;;
69030;SDS011;56083;48.774;8.942;2023-02-01T13:57:47;15.30;;;2.53;;
69030;SDS011;56083;48.774;8.942;2023-02-01T14:13:20;19.77;;;3.20;;
69030;SDS011;56083;48.774;8.942;2023-02-01T14:23:44;15.27;;;3.33;;
69030;SDS011;56083;48.774;8.942;2023-02-01T14:26:16;22.70;;;3.72;;
69030;SDS011;56083;48.774;8.942;2023-02-01T14:31:43;20.65;;;3.28;;
69030;SDS011;56083;48.774;8.942;2023-02-01T14:34:35;23.98;;;3.17;;
69030;SDS011;56083;48.774;8.942;2023-02-01T14:37:09;19.77;;;3.28;;
69030;SDS011;56083;48.774;8.942;2023-02-01T14:39:52;19.83;;;3.55;;
69030;SDS011;56083;48.774;8.942;2023-02-01T14:47:50;23.42;;;3.70;;
69030;SDS011;56083;48.774;8.942;2023-02-01T14:58:05;22.10;;;3.40;;
69030;SDS011;56083;48.774;8.942;2023-02-01T15:00:41;16.20;;;3.38;;
69030;SDS011;56083;48.774;8.942;2023-02-01T15:09:13;25.17;;;3.35;;
69030;SDS011;56083;48.774;8.942;2023-02-01T15:14:41;20.48;;;3.50;;
69030;SDS011;56083;48.774;8.942;2023-02-01T15:22:26;20.40;;;3.47;;
69030;SDS011;56083;48.774;8.942;2023-02-01T15:24:54;60.38;;;23.13;;
69030;SDS011;56083;48.774;8.942;2023-02-01T15:27:22;16.77;;;3.00;;
69030;SDS011;56083;48.774;8.942;2023-02-01T15:29:48;21.65;;;2.97;;
69030;SDS011;56083;48.774;8.942;2023-02-01T15:32:30;16.33;;;3.63;;
69030;SDS011;56083;48.774;8.942;2023-02-01T15:34:58;15.20;;;2.70;;
69030;SDS011;56083;48.774;8.942;2023-02-01T15:37:25;16.92;;;3.03;;
69030;SDS011;56083;48.774;8.942;2023-02-01T15:42:55;20.05;;;2.85;;
69030;SDS011;56083;48.774;8.942;2023-02-01T15:45:26;13.65;;;2.78;;
69030;SDS011;56083;48.774;8.942;2023-02-01T15:47:57;11.60;;;2.20;;
69030;SDS011;56083;48.774;8.942;2023-02-01T15:50:24;15.32;;;2.78;;
69030;SDS011;56083;48.774;8.942;2023-02-01T15:52:52;14.93;;;2.92;;
69030;SDS011;56083;48.774;8.942;2023-02-01T15:58:08;19.08;;;3.42;;
69030;SDS011;56083;48.774;8.942;2023-02-01T16:00:52;11.88;;;2.75;;
69030;SDS011;56083;48.774;8.942;2023-02-01T16:03:25;14.43;;;2.47;;
69030;SDS011;56083;48.774;8.942;2023-02-01T16:05:59;13.05;;;2.40;;
69030;SDS011;56083;48.774;8.942;2023-02-01T16:08:27;12.07;;;2.30;;
69030;SDS011;56083;48.774;8.942;2023-02-01T16:10:59;13.07;;;2.10;;
69030;SDS011;56083;48.774;8.942;2023-02-01T16:13:38;18.30;;;3.08;;
69030;SDS011;56083;48.774;8.942;2023-02-01T16:16:06;19.58;;;3.45;;
69030;SDS011;56083;48.774;8.942;2023-02-01T16:18:38;16.73;;;3.15;;
69030;SDS011;56083;48.774;8.942;2023-02-01T16:21:07;15.23;;;3.13;;
69030;SDS011;56083;48.774;8.942;2023-02-01T16:23:34;20.42;;;3.88;;
69030;SDS011;56083;48.774;8.942;2023-02-01T16:26:00;15.32;;;2.85;;
69030;SDS011;56083;48.774;8.942;2023-02-01T16:28:26;18.48;;;2.95;;
69030;SDS011;56083;48.774;8.942;2023-02-01T16:30:52;20.23;;;2.60;;
69030;SDS011;56083;48.774;8.942;2023-02-01T16:33:18;14.45;;;2.55;;
69030;SDS011;56083;48.774;8.942;2023-02-01T16:35:46;17.15;;;3.92;;
69030;SDS011;56083;48.774;8.942;2023-02-01T16:38:13;20.35;;;3.38;;
69030;SDS011;56083;48.774;8.942;2023-02-01T16:40:43;17.52;;;2.90;;
69030;SDS011;56083;48.774;8.942;2023-02-01T16:43:14;19.73;;;3.42;;
69030;SDS011;56083;48.774;8.942;2023-02-01T16:45:42;19.35;;;2.72;;
69030;SDS011;56083;48.774;8.942;2023-02-01T16:50:45;25.38;;;3.28;;
69030;SDS011;56083;48.774;8.942;2023-02-01T16:53:14;26.52;;;3.80;;
69030;SDS011;56083;48.774;8.942;2023-02-01T16:55:42;11.77;;;2.70;;
69030;SDS011;56083;48.774;8.942;2023-02-01T16:58:08;20.25;;;2.72;;
69030;SDS011;56083;48.774;8.942;2023-02-01T17:00:34;19.13;;;4.15;;
69030;SDS011;56083;48.774;8.942;2023-02-01T17:03:02;15.65;;;3.30;;
69030;SDS011;56083;48.774;8.942;2023-02-01T17:05:29;21.30;;;2.97;;
69030;SDS011;56083;48.774;8.942;2023-02-01T17:07:57;14.05;;;2.50;;
69030;SDS011;56083;48.774;8.942;2023-02-01T17:10:29;18.48;;;2.65;;
69030;SDS011;56083;48.774;8.942;2023-02-01T17:12:55;19.25;;;2.80;;
69030;SDS011;56083;48.774;8.942;2023-02-01T17:15:22;14.50;;;3.08;;
69030;SDS011;56083;48.774;8.942;2023-02-01T17:17:49;15.75;;;3.10;;
69030;SDS011;56083;48.774;8.942;2023-02-01T17:20:19;21.23;;;3.97;;
69030;SDS011;56083;48.774;8.942;2023-02-01T17:22:46;18.88;;;3.47;;
69030;SDS011;56083;48.774;8.942;2023-02-01T17:25:16;22.30;;;2.97;;
69030;SDS011;56083;48.774;8.942;2023-02-01T17:27:44;12.20;;;2.72;;
69030;SDS011;56083;48.774;8.942;2023-02-01T17:30:11;23.05;;;4.70;;
69030;SDS011;56083;48.774;8.942;2023-02-01T17:32:37;20.08;;;3.42;;
69030;SDS011;56083;48.774;8.942;2023-02-01T17:35:03;24.10;;;4.30;;
69030;SDS011;56083;48.774;8.942;2023-02-01T17:37:31;24.48;;;3.85;;
69030;SDS011;56083;48.774;8.942;2023-02-01T17:39:58;22.35;;;4.15;;
69030;SDS011;56083;48.774;8.942;2023-02-01T17:42:25;19.25;;;3.53;;
69030;SDS011;56083;48.774;8.942;2023-02-01T17:44:54;20.90;;;4.18;;
69030;SDS011;56083;48.774;8.942;2023-02-01T17:47:22;23.30;;;4.60;;
69030;SDS011;56083;48.774;8.942;2023-02-01T17:49:47;18.75;;;3.03;;
69030;SDS011;56083;48.774;8.942;2023-02-01T17:52:19;16.27;;;2.70;;
69030;SDS011;56083;48.774;8.942;2023-02-01T17:54:45;22.17;;;3.22;;
69030;SDS011;56083;48.774;8.942;2023-02-01T17:57:14;21.67;;;3.33;;
69030;SDS011;56083;48.774;8.942;2023-02-01T17:59:41;16.27;;;3.65;;
69030;SDS011;56083;48.774;8.942;2023-02-01T18:02:16;17.23;;;3.40;;
69030;SDS011;56083;48.774;8.942;2023-02-01T18:04:44;23.42;;;3.17;;
69030;SDS011;56083;48.774;8.942;2023-02-01T18:07:09;15.52;;;3.53;;